Time;durP1;ratioP1;P1;durP2;ratioP2;P2;SDS_P1;SDS_P2;PMS_P1;PMS_P2;Temp;Humidity;BMP_temperature;BMP_pressure;BME280_temperature;BME280_humidity;BME280_pressure;Samples;Min_cycle;Max_cycle;Signal;HPM_P1;HPM_P2
2021/06/17 00:01:41;;;;;;;7.55;4.50;;;;;;;18.70;71.49;95161.38;5081832;28;20507;-83
2021/06/17 00:04:06;;;;;;;4.38;3.50;;;;;;;18.71;70.87;95165.59;5057856;28;20025;-83
2021/06/17 00:06:32;;;;;;;4.63;3.42;;;;;;;18.59;70.67;95166.69;5056809;28;20036;-84
2021/06/17 00:08:57;;;;;;;5.80;3.25;;;;;;;18.50;71.03;95168.31;5075056;28;20037;-83
2021/06/17 00:11:23;;;;;;;6.75;3.40;;;;;;;18.53;70.75;95162.50;5074513;28;20039;-84
2021/06/17 00:13:48;;;;;;;6.10;3.20;;;;;;;18.48;70.68;95170.44;5073114;28;20407;-83
2021/06/17 00:16:14;;;;;;;7.03;3.67;;;;;;;18.49;70.83;95153.59;5071819;28;20061;-83
2021/06/17 00:18:39;;;;;;;5.00;3.10;;;;;;;18.45;70.97;95154.41;5073385;28;20029;-84
2021/06/17 00:21:05;;;;;;;6.03;3.17;;;;;;;18.51;70.72;95158.56;5070796;28;20044;-83
2021/06/17 00:23:31;;;;;;;3.35;3.05;;;;;;;18.52;70.51;95166.19;5073723;28;20040;-83
2021/06/17 00:26:03;;;;;;;8.02;3.28;;;;;;;18.42;70.62;95161.00;5056766;28;20032;-84
2021/06/17 00:28:29;;;;;;;;;;;;;;;18.44;70.71;95161.53;5064544;28;20063;-83
2021/06/17 00:30:54;;;;;;;7.10;3.03;;;;;;;18.37;70.87;95158.38;5073826;28;20307;-84
2021/06/17 00:33:19;;;;;;;4.47;2.92;;;;;;;18.33;71.04;95162.63;5074081;28;20025;-82
2021/06/17 00:35:45;;;;;;;7.40;3.50;;;;;;;18.34;70.88;95151.03;5082361;28;20045;-86
2021/06/17 00:38:11;;;;;;;15.30;3.90;;;;;;;18.28;70.71;95147.66;5056739;28;20028;-86
2021/06/17 00:40:43;;;;;;;10.10;4.97;;;;;;;18.24;70.67;95148.47;5075068;28;20032;-86
2021/06/17 00:43:08;;;;;;;9.95;4.25;;;;;;;18.19;70.01;95146.63;5063363;28;20120;-84
2021/06/17 00:45:39;;;;;;;12.38;5.25;;;;;;;18.15;70.90;95139.56;5073885;28;20143;-86
2021/06/17 00:48:06;;;;;;;7.80;4.38;;;;;;;18.17;70.86;95142.69;5060748;28;20503;-85
2021/06/17 00:50:38;;;;;;;6.78;4.28;;;;;;;18.13;70.71;95136.41;5075840;28;20029;-85
2021/06/17 00:53:11;;;;;;;7.72;4.47;;;;;;;18.08;70.90;95144.34;5121015;28;20017;-84
2021/06/17 00:55:41;;;;;;;6.50;4.93;;;;;;;18.04;70.83;95140.66;5095705;28;20037;-83
2021/06/17 00:58:06;;;;;;;12.20;4.93;;;;;;;18.01;70.55;95139.34;5087482;28;20036;-83
2021/06/17 01:00:32;;;;;;;8.13;4.95;;;;;;;17.97;70.68;95133.84;5061236;28;20037;-82
2021/06/17 01:02:57;;;;;;;10.65;4.65;;;;;;;17.92;70.82;95127.84;5093266;28;20039;-83
2021/06/17 01:05:24;;;;;;;7.43;5.22;;;;;;;17.86;70.91;95127.03;5051133;28;20032;-83
2021/06/17 01:08:02;;;;;;;7.50;4.90;;;;;;;17.83;70.95;95132.84;5057319;28;20039;-82
2021/06/17 01:10:31;;;;;;;8.23;5.60;;;;;;;17.77;70.85;95133.94;5077884;28;20080;-82
2021/06/17 01:13:17;;;;;;;11.15;5.95;;;;;;;17.71;71.08;95129.72;5077372;28;20025;-82
2021/06/17 01:16:06;;;;;;;9.43;5.35;;;;;;;17.64;71.09;95126.59;5074935;28;20038;-83
2021/06/17 01:18:36;;;;;;;10.88;5.95;;;;;;;17.59;71.62;95123.97;5030073;28;20040;-82
2021/06/17 01:21:02;;;;;;;11.77;5.47;;;;;;;17.58;71.51;95130.28;5042188;28;20109;-83
2021/06/17 01:24:01;;;;;;;15.15;5.78;;;;;;;17.55;71.62;95121.06;5075699;28;20039;-83
2021/06/17 01:26:37;;;;;;;8.85;5.55;;;;;;;17.53;71.30;95122.41;5076678;28;20048;-82
2021/06/17 01:29:03;;;;;;;6.15;5.15;;;;;;;17.49;70.94;95121.38;5082091;28;20032;-83
2021/06/17 01:31:31;;;;;;;6.65;4.70;;;;;;;17.44;70.96;95118.75;5059408;28;20033;-83
2021/06/17 01:34:06;;;;;;;6.70;4.90;;;;;;;17.36;71.57;95118.22;5042826;28;20142;-83
2021/06/17 01:37:01;;;;;;;5.28;4.88;;;;;;;17.29;71.56;95125.63;5042137;28;20561;-83
2021/06/17 01:39:27;;;;;;;13.40;4.45;;;;;;;17.23;71.97;95125.88;5067595;28;20044;-83
2021/06/17 01:42:11;;;;;;;7.38;4.45;;;;;;;17.22;71.78;95124.31;5058670;28;20479;-83
2021/06/17 01:44:36;;;;;;;10.00;5.45;;;;;;;17.18;71.45;95125.88;5076126;28;20033;-83
2021/06/17 01:47:02;;;;;;;6.22;5.18;;;;;;;17.13;72.18;95125.91;5059129;28;20082;-83
2021/06/17 01:49:27;;;;;;;5.10;4.60;;;;;;;17.13;72.57;95125.91;5076169;28;20028;-84
2021/06/17 01:51:57;;;;;;;5.97;4.32;;;;;;;17.04;72.32;95125.63;5042603;28;20028;-84
2021/06/17 01:54:24;;;;;;;12.63;4.93;;;;;;;17.06;72.45;95119.06;5084936;28;20078;-85
2021/06/17 01:59:19;;;;;;;10.52;4.80;;;;;;;17.03;72.56;95124.06;5025024;28;20053;-83
2021/06/17 02:01:44;;;;;;;17.65;5.10;;;;;;;16.99;72.14;95112.50;5068386;22;20056;-84
2021/06/17 02:04:10;;;;;;;13.68;5.35;;;;;;;17.01;72.24;95118.28;5044601;28;20029;-84
2021/06/17 02:06:35;;;;;;;17.17;5.47;;;;;;;16.97;72.68;95118.03;5013915;28;20102;-84
2021/06/17 02:09:01;;;;;;;12.60;5.20;;;;;;;16.90;72.91;95114.09;5012164;28;20033;-84
2021/06/17 02:11:28;;;;;;;16.90;5.18;;;;;;;16.89;72.71;95115.13;5066592;22;20497;-85
2021/06/17 02:13:53;;;;;;;13.45;5.00;;;;;;;16.88;72.31;95118.81;5062802;28;20031;-85
2021/06/17 02:16:19;;;;;;;27.77;4.88;;;;;;;16.85;72.35;95111.47;5048705;28;20222;-85
2021/06/17 02:18:45;;;;;;;17.25;5.95;;;;;;;16.84;72.20;95117.78;5038376;28;20033;-85
2021/06/17 02:21:29;;;;;;;10.35;5.38;;;;;;;16.83;72.12;95126.72;5070875;23;20044;-83
2021/06/17 02:23:56;;;;;;;9.57;5.05;;;;;;;16.80;72.18;95126.19;5052228;28;20037;-83
2021/06/17 02:26:21;;;;;;;7.95;4.95;;;;;;;16.76;72.28;95125.13;5049821;28;20033;-83
2021/06/17 02:28:48;;;;;;;7.18;4.75;;;;;;;16.75;72.05;95126.16;5026130;28;20036;-83
2021/06/17 02:31:15;;;;;;;10.05;5.03;;;;;;;16.74;72.26;95123.81;5033863;28;20067;-84
2021/06/17 02:33:40;;;;;;;8.75;4.90;;;;;;;16.72;72.26;95118.03;5055505;28;20528;-85
2021/06/17 02:36:06;;;;;;;9.20;5.50;;;;;;;16.69;72.52;95114.09;5038535;28;20108;-85
2021/06/17 02:38:36;;;;;;;11.88;5.68;;;;;;;16.67;72.85;95116.19;5038976;28;20044;-85
2021/06/17 02:41:04;;;;;;;9.13;5.18;;;;;;;16.64;72.58;95111.44;5029575;28;20029;-84
2021/06/17 02:43:31;;;;;;;12.23;5.63;;;;;;;16.64;72.20;95111.44;5034672;28;20105;-85
2021/06/17 02:45:57;;;;;;;9.23;5.45;;;;;;;16.66;72.42;95111.19;5030640;28;20029;-86
2021/06/17 02:48:22;;;;;;;12.48;5.65;;;;;;;16.57;72.95;95110.91;5055521;28;20028;-85
2021/06/17 02:50:47;;;;;;;14.05;6.28;;;;;;;16.62;73.12;95126.66;5053176;28;20033;-85
2021/06/17 02:53:13;;;;;;;6.00;5.40;;;;;;;16.62;72.72;95113.53;5055745;28;20139;-84
2021/06/17 02:55:39;;;;;;;5.80;4.78;;;;;;;16.63;72.83;95114.34;5054360;28;20037;-84
2021/06/17 02:58:32;;;;;;;6.05;5.05;;;;;;;16.66;73.14;95124.31;5071485;28;20131;-84
2021/06/17 03:01:08;;;;;;;7.63;5.22;;;;;;;16.67;72.87;95113.56;5056169;28;20029;-84
2021/06/17 03:03:39;;;;;;;16.17;5.53;;;;;;;16.72;72.36;95112.78;5074591;28;20033;-84
2021/06/17 03:06:40;;;;;;;8.25;6.60;;;;;;;16.75;72.35;95122.75;5060258;28;20055;-85
2021/06/17 03:09:09;;;;;;;10.73;7.55;;;;;;;16.78;72.07;95123.03;5051674;28;20099;-83
2021/06/17 03:11:37;;;;;;;8.32;5.03;;;;;;;16.79;72.11;95124.59;5052068;28;20466;-83
2021/06/17 03:14:05;;;;;;;6.47;5.78;;;;;;;16.84;72.08;95126.44;5050133;28;20137;-82
2021/06/17 03:16:32;;;;;;;10.27;5.18;;;;;;;16.86;71.77;95129.59;5049711;28;20530;-83
2021/06/17 03:18:59;;;;;;;6.07;5.05;;;;;;;16.80;71.55;95131.44;5033234;28;20083;-83
2021/06/17 03:21:25;;;;;;;7.35;5.70;;;;;;;16.86;71.60;95128.81;5025010;28;20403;-83
2021/06/17 03:23:50;;;;;;;12.73;4.57;;;;;;;16.94;71.37;95136.16;5034728;28;20035;-82
2021/06/17 03:26:16;;;;;;;7.80;3.97;;;;;;;16.96;71.01;95134.84;5133712;23;20459;-82
2021/06/17 03:28:41;;;;;;;10.35;4.80;;;;;;;16.98;71.02;95137.22;5052349;28;20044;-82
2021/06/17 03:31:07;;;;;;;5.45;4.45;;;;;;;17.07;69.95;95141.66;5051336;28;20087;-82
2021/06/17 03:33:34;;;;;;;9.60;4.85;;;;;;;17.12;69.98;95137.47;5018149;28;20072;-82
2021/06/17 03:36:00;;;;;;;4.72;4.32;;;;;;;17.13;69.71;95137.19;5034987;28;20040;-83
2021/06/17 03:38:25;;;;;;;6.90;5.15;;;;;;;17.15;69.38;95137.72;5053978;28;20033;-83
2021/06/17 03:40:51;;;;;;;13.07;5.80;;;;;;;17.10;69.78;95143.00;5020845;28;20075;-85
2021/06/17 03:43:17;;;;;;;52.38;34.78;;;;;;;17.04;70.16;95146.66;5022171;28;20039;-83
2021/06/17 03:45:42;;;;;;;23.60;16.08;;;;;;;16.77;71.78;95142.47;5028878;28;20586;-82
2021/06/17 03:48:08;;;;;;;13.18;8.52;;;;;;;16.59;73.21;95158.69;5054534;28;20107;-85
2021/06/17 03:53:19;;;;;;;23.73;12.13;;;;;;;16.84;74.10;95144.03;5053654;28;20061;-84
2021/06/17 03:55:45;;;;;;;14.30;11.02;;;;;;;17.03;73.29;95160.84;5051129;28;20033;-83
2021/06/17 03:58:10;;;;;;;14.50;11.00;;;;;;;17.15;73.42;95166.63;5033433;28;20086;-83
2021/06/17 04:00:36;;;;;;;16.33;9.75;;;;;;;17.26;72.96;95167.41;5007636;28;20488;-87
2021/06/17 04:03:08;;;;;;;19.17;12.18;;;;;;;17.15;73.39;95166.63;5014589;28;20034;-78
2021/06/17 04:05:36;;;;;;;21.92;13.50;;;;;;;16.83;75.25;95168.72;5033194;28;20117;-78
2021/06/17 04:08:02;;;;;;;24.75;13.95;;;;;;;16.61;76.34;95167.09;5026870;28;20104;-79
2021/06/17 04:10:33;;;;;;;14.85;12.32;;;;;;;16.56;77.37;95177.59;5015220;28;20058;-79
2021/06/17 04:12:58;;;;;;;24.08;14.77;;;;;;;16.43;77.76;95178.06;5008767;28;20052;-79
2021/06/17 04:15:24;;;;;;;24.05;13.73;;;;;;;16.43;78.47;95175.44;5008059;28;20025;-79
2021/06/17 04:17:55;;;;;;;20.83;14.68;;;;;;;16.36;78.39;95173.06;5026261;28;20022;-79
2021/06/17 04:20:23;;;;;;;19.67;14.60;;;;;;;16.34;78.94;95180.44;5005607;28;20072;-79
2021/06/17 04:22:55;;;;;;;26.60;13.73;;;;;;;16.38;78.65;95183.31;4990433;28;20099;-79
2021/06/17 04:27:56;;;;;;;30.48;15.43;;;;;;;16.51;78.52;95180.22;5104409;22;20052;-78
2021/06/17 04:30:22;;;;;;;28.23;14.25;;;;;;;16.63;78.03;95183.38;5069022;28;20036;-78
2021/06/17 04:32:50;;;;;;;91.95;15.27;;;;;;;16.80;77.08;95188.44;5018787;28;20051;-78
2021/06/17 04:35:16;;;;;;;75.93;15.05;;;;;;;16.87;76.79;95193.41;5036129;28;20049;-78
2021/06/17 04:37:41;;;;;;;30.35;15.43;;;;;;;16.87;77.11;95182.91;5032657;28;20068;-78
2021/06/17 04:40:08;;;;;;;17.95;13.80;;;;;;;17.03;76.79;95187.13;5048276;28;20033;-77
2021/06/17 04:42:33;;;;;;;19.83;13.05;;;;;;;17.24;76.31;95188.69;5013652;28;20029;-78
2021/06/17 04:44:59;;;;;;;17.30;13.50;;;;;;;17.37;75.51;95188.16;5046269;28;20052;-77
2021/06/17 04:47:24;;;;;;;21.20;13.00;;;;;;;17.56;75.33;95195.47;5047382;28;20029;-77
2021/06/17 04:49:50;;;;;;;31.63;14.07;;;;;;;17.72;74.48;95194.44;5048249;28;20045;-78
2021/06/17 04:52:44;;;;;;;27.48;14.35;;;;;;;17.75;73.58;95196.56;5046613;28;20039;-78
2021/06/17 04:55:10;;;;;;;19.95;13.10;;;;;;;18.08;73.53;95196.97;5050521;28;20126;-85
2021/06/17 04:57:35;;;;;;;20.73;12.45;;;;;;;18.39;71.68;95198.44;5038157;28;20085;-85
2021/06/17 05:00:01;;;;;;;21.95;12.75;;;;;;;18.67;70.88;95199.59;5063708;28;20036;-84
2021/06/17 05:02:32;;;;;;;21.02;11.70;;;;;;;18.94;69.45;95195.75;5049778;28;20025;-82
2021/06/17 05:04:58;;;;;;;17.05;11.52;;;;;;;19.21;68.41;95197.94;5040357;28;20029;-85
2021/06/17 05:07:39;;;;;;;28.17;12.02;;;;;;;19.36;67.94;95195.94;5047908;28;20040;-84
2021/06/17 05:12:49;;;;;;;27.08;12.25;;;;;;;19.96;65.82;95203.56;5038701;28;20043;-85
2021/06/17 05:15:14;;;;;;;19.35;10.68;;;;;;;20.32;64.15;95196.78;5051929;28;20029;-85
2021/06/17 05:17:40;;;;;;;23.83;11.77;;;;;;;20.95;62.21;95193.06;5018330;28;20029;-84
2021/06/17 05:20:06;;;;;;;19.65;12.48;;;;;;;21.97;59.08;95202.75;5053400;28;20025;-85
2021/06/17 05:22:32;;;;;;;22.63;12.52;;;;;;;22.82;56.24;95203.16;5035526;28;20047;-84
2021/06/17 05:24:58;;;;;;;27.23;12.27;;;;;;;24.34;52.25;95202.06;5018612;28;20120;-85
2021/06/17 05:27:23;;;;;;;21.58;10.85;;;;;;;26.95;46.05;95208.38;5069272;28;20033;-85
2021/06/17 05:29:49;;;;;;;18.23;11.60;;;;;;;29.82;39.20;95200.59;5053630;28;20048;-85
2021/06/17 05:32:15;;;;;;;17.63;11.07;;;;;;;32.35;34.03;95192.41;5053567;28;20025;-84
2021/06/17 05:34:41;;;;;;;16.58;10.18;;;;;;;34.76;29.56;95206.19;5038367;28;20103;-83
2021/06/17 05:37:06;;;;;;;15.27;9.57;;;;;;;35.55;27.66;95216.25;5038141;28;20485;-84
2021/06/17 05:39:32;;;;;;;18.63;9.77;;;;;;;35.99;27.02;95215.22;5039176;28;20078;-83
2021/06/17 05:41:57;;;;;;;13.73;7.95;;;;;;;37.42;25.04;95222.00;5055763;28;20095;-84
2021/06/17 05:44:23;;;;;;;12.90;7.70;;;;;;;38.56;23.33;95226.69;5053483;28;20025;-84
2021/06/17 05:46:48;;;;;;;12.02;7.50;;;;;;;38.52;23.68;95231.38;5057424;28;20021;-84
2021/06/17 05:49:14;;;;;;;14.00;7.28;;;;;;;38.22;23.54;95226.59;5064137;28;20029;-83
2021/06/17 05:51:39;;;;;;;10.13;6.85;;;;;;;38.62;23.33;95227.03;5376413;22;20511;-83
2021/06/17 05:54:05;;;;;;;15.82;7.43;;;;;;;38.71;23.07;95228.13;5078269;28;20124;-83
2021/06/17 05:56:30;;;;;;;17.65;6.50;;;;;;;38.51;22.57;95227.13;5069292;28;20142;-83
2021/06/17 05:58:56;;;;;;;7.35;6.55;;;;;;;38.51;23.07;95229.06;5024315;28;20040;-83
2021/06/17 06:01:22;;;;;;;13.40;6.47;;;;;;;39.88;21.46;95227.97;5054943;28;20432;-84
2021/06/17 06:03:48;;;;;;;14.43;6.90;;;;;;;40.58;20.30;95222.63;5055151;28;20029;-84
2021/06/17 06:06:13;;;;;;;13.32;7.45;;;;;;;40.89;19.98;95231.44;5022515;28;20032;-84
2021/06/17 06:08:39;;;;;;;18.30;7.43;;;;;;;41.86;19.21;95219.38;5038189;28;20037;-84
2021/06/17 06:11:04;;;;;;;18.08;7.50;;;;;;;43.04;18.05;95222.78;5037939;28;20496;-84
2021/06/17 06:13:31;;;;;;;11.70;6.78;;;;;;;44.47;16.44;95219.31;5038912;28;20035;-84
2021/06/17 06:15:57;;;;;;;14.40;6.72;;;;;;;45.68;15.50;95217.84;5056907;28;20025;-84
2021/06/17 06:18:26;;;;;;;9.32;6.28;;;;;;;46.40;14.34;95224.88;5038722;28;20051;-84
2021/06/17 06:20:56;;;;;;;11.07;5.80;;;;;;;47.38;13.92;95232.09;5022055;28;20118;-84
2021/06/17 06:23:21;;;;;;;5.60;5.07;;;;;;;47.50;13.45;95222.88;5038468;28;20032;-84
2021/06/17 06:25:49;;;;;;;14.32;5.57;;;;;;;47.96;13.00;95222.75;5037340;28;20025;-84
2021/06/17 06:28:14;;;;;;;9.68;4.32;;;;;;;48.18;13.32;95210.72;5055000;28;20033;-83
2021/06/17 06:30:48;;;;;;;7.57;4.75;;;;;;;48.07;13.09;95223.03;5037924;28;20058;-83
2021/06/17 06:33:18;;;;;;;9.45;4.13;;;;;;;47.19;13.76;95222.31;5055058;28;20036;-84
2021/06/17 06:35:43;;;;;;;12.65;4.63;;;;;;;46.78;14.07;95216.22;5037579;28;20032;-83
2021/06/17 06:38:10;;;;;;;10.18;3.60;;;;;;;46.79;14.09;95223.25;5037879;28;20040;-83
2021/06/17 06:40:44;;;;;;;12.07;3.95;;;;;;;47.73;13.07;95223.44;5056101;28;20037;-83
2021/06/17 06:43:11;;;;;;;10.55;3.63;;;;;;;47.52;13.26;95214.94;5055205;28;20029;-83
2021/06/17 06:45:37;;;;;;;4.85;3.67;;;;;;;46.34;14.21;95218.38;5054476;28;20044;-83
2021/06/17 06:48:03;;;;;;;10.05;4.22;;;;;;;47.26;13.94;95221.25;5055057;28;20036;-83
2021/06/17 06:50:28;;;;;;;7.88;3.58;;;;;;;47.72;13.05;95219.16;5075673;28;20037;-83
2021/06/17 06:52:53;;;;;;;11.27;3.30;;;;;;;46.93;13.62;95211.63;5076374;28;20033;-83
2021/06/17 06:55:19;;;;;;;4.13;3.15;;;;;;;46.15;14.40;95209.34;5054141;28;20033;-82
2021/06/17 06:57:44;;;;;;;7.90;3.08;;;;;;;46.53;14.44;95213.69;5053691;28;20560;-83
2021/06/17 07:00:12;;;;;;;7.90;3.17;;;;;;;46.71;14.35;95216.50;5037294;28;20049;-83
2021/06/17 07:02:37;;;;;;;9.65;3.38;;;;;;;45.93;14.69;95216.88;5037973;28;20041;-83
2021/06/17 07:05:03;;;;;;;3.22;2.90;;;;;;;45.07;14.93;95209.03;5038666;28;20036;-83
2021/06/17 07:07:29;;;;;;;5.65;2.72;;;;;;;43.73;16.01;95212.97;5020960;28;20060;-83
2021/06/17 07:09:54;;;;;;;5.40;2.92;;;;;;;42.75;16.89;95212.56;5037862;28;20037;-83
2021/06/17 07:12:20;;;;;;;9.77;3.13;;;;;;;42.14;17.92;95207.81;5055199;28;20032;-83
2021/06/17 07:14:45;;;;;;;7.03;3.38;;;;;;;41.29;18.33;95215.88;5054563;28;20052;-83
2021/06/17 07:17:11;;;;;;;8.00;4.30;;;;;;;40.64;18.95;95220.19;5021141;28;20063;-83
2021/06/17 07:19:36;;;;;;;9.35;3.70;;;;;;;39.92;19.73;95210.38;5055147;28;20563;-83
2021/06/17 07:22:02;;;;;;;10.10;3.72;;;;;;;39.65;20.19;95211.56;5054380;28;20079;-83
2021/06/17 07:24:27;;;;;;;8.82;4.28;;;;;;;39.40;21.16;95211.88;5021020;28;20029;-83
2021/06/17 07:26:54;;;;;;;6.15;3.40;;;;;;;38.83;21.49;95207.06;5036722;28;20035;-83
2021/06/17 07:29:20;;;;;;;4.35;2.67;;;;;;;38.42;22.02;95213.25;5020702;28;20040;-83
2021/06/17 07:31:45;;;;;;;6.38;3.45;;;;;;;37.94;23.26;95222.13;5020437;28;20052;-84
2021/06/17 07:34:11;;;;;;;8.07;3.03;;;;;;;37.11;23.09;95209.31;5036397;28;20484;-84
2021/06/17 07:36:40;;;;;;;18.17;3.10;;;;;;;36.42;23.38;95210.59;5038612;28;20036;-83
2021/06/17 07:39:06;;;;;;;9.13;3.08;;;;;;;35.76;24.52;95205.47;5036131;28;20182;-83
2021/06/17 07:41:36;;;;;;;7.63;2.80;;;;;;;35.31;25.21;95206.09;5052059;28;20029;-83
2021/06/17 07:44:02;;;;;;;16.27;3.28;;;;;;;35.08;25.79;95204.47;5054108;28;20083;-82
2021/06/17 07:46:27;;;;;;;13.32;2.63;;;;;;;34.92;25.93;95204.00;5054873;28;20120;-83
2021/06/17 07:48:56;;;;;;;7.80;3.08;;;;;;;34.75;26.34;95196.53;5055471;28;20037;-84
2021/06/17 07:51:22;;;;;;;8.35;3.17;;;;;;;34.47;27.88;95206.00;5059202;28;20037;-84
2021/06/17 07:53:47;;;;;;;13.45;2.97;;;;;;;34.39;27.41;95199.03;5037564;28;20037;-84
2021/06/17 07:56:13;;;;;;;12.52;3.22;;;;;;;34.34;27.70;95195.88;5054521;28;20491;-84
2021/06/17 07:58:38;;;;;;;7.80;2.75;;;;;;;34.28;27.81;95196.22;5020382;28;20028;-83
2021/06/17 08:01:07;;;;;;;2.78;2.40;;;;;;;33.97;26.94;95184.00;5020074;28;20425;-83
2021/06/17 08:03:32;;;;;;;6.45;2.53;;;;;;;33.62;27.73;95203.31;5021684;28;20029;-85
2021/06/17 08:05:58;;;;;;;5.10;2.42;;;;;;;33.70;28.06;95196.84;5019401;28;20049;-83
2021/06/17 08:08:24;;;;;;;4.72;2.80;;;;;;;33.35;28.25;95193.75;5055031;28;20433;-83
2021/06/17 08:10:49;;;;;;;4.38;2.50;;;;;;;33.10;28.48;95196.16;5039207;28;20519;-85
2021/06/17 08:13:15;;;;;;;4.65;2.33;;;;;;;32.83;29.43;95198.09;5063497;28;20045;-82
2021/06/17 08:15:41;;;;;;;4.10;2.40;;;;;;;32.40;30.89;95196.72;5067685;28;20032;-82
2021/06/17 08:18:06;;;;;;;7.15;2.30;;;;;;;32.12;30.79;95192.41;5044952;28;20523;-84
2021/06/17 08:22:59;;;;;;;4.25;2.60;;;;;;;31.61;31.41;95186.50;5021794;28;20062;-85
2021/06/17 08:25:25;;;;;;;8.07;2.53;;;;;;;31.49;31.05;95184.75;5024700;28;20500;-85
2021/06/17 08:27:51;;;;;;;9.60;2.53;;;;;;;31.36;31.78;95184.13;5006700;28;20052;-84
2021/06/17 08:30:20;;;;;;;3.13;2.25;;;;;;;31.13;30.22;95179.81;5021350;28;20036;-85
2021/06/17 08:32:46;;;;;;;4.97;2.70;;;;;;;30.57;30.71;95180.13;5031064;28;20413;-84
2021/06/17 08:35:15;;;;;;;10.68;2.75;;;;;;;30.35;31.69;95179.66;5023806;28;20033;-85
2021/06/17 08:37:41;;;;;;;4.20;2.30;;;;;;;30.16;32.72;95176.94;5013427;28;20045;-85
2021/06/17 08:40:13;;;;;;;6.25;2.35;;;;;;;30.16;33.27;95171.56;5024563;28;20465;-84
2021/06/17 08:42:39;;;;;;;5.22;2.60;;;;;;;30.20;33.75;95175.09;5023147;28;20026;-84
2021/06/17 08:45:06;;;;;;;8.95;2.90;;;;;;;30.08;34.29;95167.94;5021104;28;20420;-84
2021/06/17 08:47:33;;;;;;;10.73;3.05;;;;;;;29.97;33.91;95169.56;5004999;28;20124;-85
2021/06/17 08:50:01;;;;;;;8.05;2.90;;;;;;;29.77;35.05;95171.34;5012147;28;20081;-84
2021/06/17 08:52:26;;;;;;;12.65;3.47;;;;;;;29.64;34.19;95167.22;5032457;28;20116;-84
2021/06/17 08:54:52;;;;;;;11.57;2.70;;;;;;;29.62;32.63;95169.47;5007454;28;20030;-85
2021/06/17 08:57:17;;;;;;;9.15;1.95;;;;;;;29.34;30.50;95163.31;5021490;28;20053;-85
2021/06/17 08:59:45;;;;;;;3.38;1.88;;;;;;;29.05;30.44;95165.22;5023853;28;20030;-84
2021/06/17 09:02:11;;;;;;;3.25;1.65;;;;;;;29.06;30.23;95164.09;5047688;28;20032;-84
2021/06/17 09:04:36;;;;;;;4.22;1.90;;;;;;;28.92;30.94;95159.13;5014530;28;20025;-84
2021/06/17 09:07:11;;;;;;;4.68;1.63;;;;;;;28.98;31.14;95162.38;5022026;28;20038;-84
2021/06/17 09:09:46;;;;;;;7.68;1.85;;;;;;;29.09;31.08;95157.28;5028685;28;20045;-84
2021/06/17 09:12:26;;;;;;;10.07;1.95;;;;;;;29.15;31.46;95151.38;5031685;28;20081;-85
2021/06/17 09:14:53;;;;;;;5.65;1.98;;;;;;;29.20;31.98;95147.66;5025592;28;20030;-84
2021/06/17 09:17:18;;;;;;;4.15;2.05;;;;;;;29.15;30.16;95146.00;5024470;28;20129;-84
2021/06/17 09:19:46;;;;;;;10.98;1.65;;;;;;;29.04;30.35;95144.94;5025907;28;20132;-85
2021/06/17 09:22:16;;;;;;;12.45;2.40;;;;;;;29.01;31.07;95145.63;5025524;28;20112;-85
2021/06/17 09:24:44;;;;;;;4.22;1.60;;;;;;;28.89;29.59;95140.31;5027561;28;20030;-85
2021/06/17 09:27:32;;;;;;;4.70;2.15;;;;;;;28.75;29.75;95137.19;5098775;22;20037;-85
2021/06/17 09:30:11;;;;;;;4.63;2.00;;;;;;;28.60;30.59;95139.44;5066879;28;20507;-85
2021/06/17 09:32:50;;;;;;;4.60;1.92;;;;;;;28.72;31.34;95137.88;5066244;28;20028;-85
2021/06/17 09:35:19;;;;;;;2.85;1.80;;;;;;;28.77;30.53;95135.72;5062374;28;20035;-85
2021/06/17 09:37:44;;;;;;;4.95;1.90;;;;;;;28.81;30.89;95136.63;5065815;28;20041;-84
2021/06/17 09:40:46;;;;;;;6.80;2.22;;;;;;;29.01;32.01;95139.47;5067323;28;20021;-85
2021/06/17 09:43:52;;;;;;;4.03;2.00;;;;;;;28.91;31.02;95122.00;5002615;28;20030;-85
2021/06/17 09:46:18;;;;;;;5.22;1.90;;;;;;;28.73;31.69;95123.38;5065547;28;20056;-84
2021/06/17 09:48:45;;;;;;;3.75;1.98;;;;;;;28.82;31.16;95116.00;5047925;28;20044;-85
2021/06/17 09:51:35;;;;;;;8.35;2.40;;;;;;;28.96;32.06;95121.75;5064042;28;20029;-85
2021/06/17 09:54:21;;;;;;;7.57;2.10;;;;;;;29.09;31.79;95125.94;5066722;28;20033;-85
2021/06/17 09:56:59;;;;;;;4.82;1.88;;;;;;;29.16;31.09;95115.44;5055782;28;20520;-85
2021/06/17 09:59:34;;;;;;;5.80;2.15;;;;;;;29.21;31.02;95107.13;5048537;28;20043;-85
2021/06/17 10:02:00;;;;;;;3.45;2.30;;;;;;;29.33;31.16;95113.56;5064706;28;20025;-85
2021/06/17 10:04:27;;;;;;;2.72;2.20;;;;;;;29.49;31.31;95109.03;5065199;28;20032;-85
2021/06/17 10:06:53;;;;;;;5.93;3.47;;;;;;;29.46;30.45;95117.75;5046541;28;20515;-85
2021/06/17 10:09:19;;;;;;;13.13;4.18;;;;;;;29.47;30.41;95103.22;5049295;28;20044;-84
2021/06/17 10:11:44;;;;;;;12.55;6.35;;;;;;;29.57;30.62;95100.03;5028231;28;20042;-84
2021/06/17 10:14:10;;;;;;;11.77;4.70;;;;;;;29.53;30.00;95096.47;5047957;28;20037;-84
2021/06/17 10:16:38;;;;;;;6.57;3.28;;;;;;;29.65;29.85;95099.09;5065962;28;20480;-85
2021/06/17 10:19:04;;;;;;;3.92;1.80;;;;;;;29.44;28.83;95093.16;5065474;28;20036;-84
2021/06/17 10:21:30;;;;;;;5.78;1.80;;;;;;;29.20;28.99;95102.13;5048909;28;20028;-85
2021/06/17 10:23:56;;;;;;;4.20;1.65;;;;;;;28.87;29.49;95094.34;5048218;28;20484;-84
2021/06/17 10:26:23;;;;;;;1.85;1.40;;;;;;;28.72;29.50;95097.72;5064225;28;20032;-85
2021/06/17 10:28:53;;;;;;;11.63;1.83;;;;;;;28.82;29.99;95102.63;5056136;28;20039;-84
2021/06/17 10:31:47;;;;;;;6.88;1.60;;;;;;;29.02;29.30;95104.34;5062550;28;20032;-85
2021/06/17 10:34:22;;;;;;;3.95;1.73;;;;;;;29.21;28.64;95099.09;5080740;28;20036;-85
2021/06/17 10:37:10;;;;;;;1.95;1.63;;;;;;;29.47;28.22;95084.47;5067580;28;20029;-85
2021/06/17 10:39:41;;;;;;;9.80;3.58;;;;;;;29.67;29.48;95086.13;5066570;28;20039;-84
2021/06/17 10:42:13;;;;;;;3.55;2.47;;;;;;;29.76;28.48;95084.00;5101048;28;20029;-85
2021/06/17 10:44:46;;;;;;;;;;;;;;;29.83;28.62;95078.84;5062976;28;20071;-82
2021/06/17 10:47:51;;;;;;;5.35;2.58;;;;;;;29.71;28.00;95072.78;5062137;28;20373;-83
2021/06/17 10:50:19;;;;;;;8.65;2.42;;;;;;;29.69;27.99;95067.00;5092797;28;20033;-83
2021/06/17 10:52:45;;;;;;;1.98;1.60;;;;;;;29.35;27.99;95063.88;5085207;28;20041;-82
2021/06/17 10:55:17;;;;;;;3.13;1.58;;;;;;;28.99;28.66;95062.97;5071089;28;20024;-82
2021/06/17 10:57:49;;;;;;;;;;;;;;;29.04;28.87;95064.59;5064325;28;20021;-83
2021/06/17 11:00:25;;;;;;;2.45;1.80;;;;;;;29.15;28.51;95057.63;5081731;28;19924;-82
2021/06/17 11:02:54;;;;;;;1.80;1.70;;;;;;;29.23;28.15;95056.69;5097348;28;20036;-82
2021/06/17 11:05:35;;;;;;;10.32;1.73;;;;;;;29.21;28.08;95047.44;5094008;28;20044;-84
2021/06/17 11:08:13;;;;;;;6.55;2.05;;;;;;;28.84;29.55;95044.94;5063747;28;20040;-84
2021/06/17 11:10:53;;;;;;;7.00;1.80;;;;;;;28.83;28.70;95039.94;5065702;28;20144;-83
2021/06/17 11:13:31;;;;;;;1.80;1.60;;;;;;;29.11;28.68;95043.34;5068240;28;20388;-84
2021/06/17 11:16:00;;;;;;;6.75;2.15;;;;;;;29.42;29.35;95036.47;5069528;28;20055;-83
2021/06/17 11:19:11;;;;;;;5.70;2.80;;;;;;;29.55;28.16;95046.00;5040337;28;20071;-85
2021/06/17 11:21:37;;;;;;;5.50;2.67;;;;;;;29.67;27.83;95048.59;4987938;28;20041;-85
2021/06/17 11:24:19;;;;;;;9.15;2.30;;;;;;;29.87;28.68;95047.53;5057354;28;20075;-83
2021/06/17 11:26:48;;;;;;;2.80;1.77;;;;;;;29.87;27.29;95047.53;5088867;28;20488;-85
2021/06/17 11:29:15;;;;;;;1.65;1.55;;;;;;;29.96;26.42;95043.88;5064467;28;20127;-85
2021/06/17 11:31:41;;;;;;;9.10;1.95;;;;;;;29.56;27.46;95037.59;5073856;28;20060;-85
2021/06/17 11:34:07;;;;;;;5.50;1.83;;;;;;;29.45;27.90;95033.09;5067358;28;20092;-85
2021/06/17 11:36:33;;;;;;;2.90;1.50;;;;;;;29.76;28.55;95035.75;5060011;28;20025;-85
2021/06/17 11:39:02;;;;;;;6.43;2.35;;;;;;;29.88;28.09;95035.66;5045648;28;20033;-84
2021/06/17 11:41:30;;;;;;;13.45;3.08;;;;;;;29.89;28.15;95028.41;5045475;28;20033;-85
2021/06/17 11:43:59;;;;;;;2.50;2.30;;;;;;;29.75;26.93;95023.50;5029140;28;20039;-85
2021/06/17 11:46:27;;;;;;;9.25;2.45;;;;;;;29.03;31.47;95022.88;5064687;28;20094;-84
2021/06/17 11:48:57;;;;;;;6.20;2.10;;;;;;;27.77;33.89;95025.03;5031202;28;20415;-84
2021/06/17 11:51:25;;;;;;;6.50;2.38;;;;;;;27.34;35.67;95029.03;5067815;28;20473;-84